logo
Search for airport 
image banner adimage banner adimage banner ad
image banner ad

LOKP - Friesach/Deutsch-Ordens-Spital Kh

Located in District Sankt Veit An Der Glan, Austria

ICAO - , IATA -

Data provided by Airmate  

General information

Coordinates: N46°56'48" E14°24'36"
Elevation is 2113 feet MSL.
 
View others Airports in Carinthia

Operational data

Special qualification required
Current time UTC:
Current local time:
Weather at : LOWK - Klagenfurt ( 34 km )
METAR: LOWK 202220Z AUTO VRB02KT 9999 FEW070 03/M02 Q1016
TAF: TAF LOWK 201715Z 2018/2118 VRB03KT 9999 FEW050 TX10/2113Z TN01/2104Z PROB30 TEMPO 2110/2118 SHRA FEW055CB SCT060
View NOTAMs / SUP AIP / TFR affecting this airport [VIEW]
Communications frequencies: [VIEW]

Runways:

Airport contact information

Address: District Sankt Veit An Der Glan Austria

Satellite view of LOKP